createdAt,value
2022-09-18T00:03:54.208Z,98.74
2022-09-18T00:10:19.154Z,98.90
2022-09-18T00:12:48.031Z,98.93
2022-09-18T00:15:17.000Z,98.72
2022-09-18T00:17:45.798Z,99.05
2022-09-18T00:20:14.791Z,99.08
2022-09-18T00:22:43.837Z,99.09
2022-09-18T00:25:12.654Z,98.89
2022-09-18T00:27:41.654Z,99.21
2022-09-18T00:30:14.059Z,99.21
2022-09-18T00:32:48.715Z,99.08
2022-09-18T00:50:55.585Z,99.11
2022-09-18T00:53:24.355Z,99.42
2022-09-18T00:55:52.998Z,99.38
2022-09-18T00:58:22.232Z,99.74
2022-09-18T01:00:51.220Z,99.56
2022-09-18T01:03:19.905Z,99.67
2022-09-18T01:06:02.873Z,99.76
2022-09-18T01:08:44.225Z,99.54
2022-09-18T01:11:34.249Z,99.47
2022-09-18T01:14:13.944Z,99.45
2022-09-18T01:16:50.994Z,99.83
2022-09-18T01:19:47.644Z,99.20
2022-09-18T01:22:31.350Z,99.27
2022-09-18T01:25:14.374Z,99.60
2022-09-18T01:28:00.244Z,99.72
2022-09-18T01:30:32.101Z,99.80
2022-09-18T01:33:07.852Z,99.75
2022-09-18T01:35:44.748Z,99.83
2022-09-18T01:38:19.699Z,99.84
2022-09-18T01:40:53.418Z,99.71
2022-09-18T01:43:24.899Z,99.45
2022-09-18T01:46:01.212Z,99.44
2022-09-18T01:48:37.062Z,99.44
2022-09-18T01:51:13.404Z,99.45
2022-09-18T01:53:49.010Z,99.33
2022-09-18T01:56:24.419Z,99.23
2022-09-18T01:58:58.332Z,99.50
2022-09-18T02:01:41.700Z,99.51
2022-09-18T02:04:15.883Z,99.41
2022-09-18T02:06:52.385Z,99.69
2022-09-18T02:09:21.595Z,99.66
2022-09-18T02:11:57.506Z,99.52
2022-09-18T02:14:35.830Z,99.72
2022-09-18T02:17:32.703Z,99.47
2022-09-18T02:20:10.160Z,99.38
2022-09-18T02:22:45.315Z,99.31
2022-09-18T02:25:21.032Z,99.15
2022-09-18T02:27:56.732Z,99.24
2022-09-18T02:30:27.067Z,99.61
2022-09-18T02:32:56.162Z,99.67
2022-09-18T02:35:33.859Z,99.42
2022-09-18T02:38:12.741Z,99.46
2022-09-18T02:40:49.761Z,99.54
2022-09-18T02:43:33.363Z,99.18
2022-09-18T02:46:12.406Z,99.38
2022-09-18T02:48:55.915Z,98.97
2022-09-18T02:51:30.818Z,98.80
2022-09-18T02:54:06.254Z,98.87
2022-09-18T02:56:40.114Z,98.97
2022-09-18T02:59:17.878Z,98.91
2022-09-18T03:01:55.702Z,98.75
2022-09-18T03:04:28.531Z,98.74
2022-09-18T03:07:20.736Z,98.73
2022-09-18T03:09:51.509Z,98.84
2022-09-18T03:12:20.344Z,98.51
2022-09-18T03:14:50.700Z,98.39
2022-09-18T03:17:19.577Z,98.49
2022-09-18T03:19:48.844Z,98.43
2022-09-18T03:22:17.749Z,98.28
2022-09-18T03:24:46.695Z,98.31
2022-09-18T03:27:18.366Z,98.45
2022-09-18T03:29:47.740Z,98.01
2022-09-18T03:32:18.878Z,98.08
2022-09-18T03:34:51.211Z,98.11
2022-09-18T03:37:20.420Z,98.07
2022-09-18T03:39:49.346Z,98.12
2022-09-18T03:42:19.303Z,97.80
2022-09-18T03:44:52.382Z,98.14
2022-09-18T03:47:30.094Z,98.19
2022-09-18T03:50:01.875Z,97.82
2022-09-18T03:52:34.148Z,97.78
2022-09-18T03:55:12.184Z,97.89
2022-09-18T03:57:59.752Z,97.96
2022-09-18T04:00:47.939Z,97.97
2022-09-18T04:03:21.377Z,97.96
2022-09-18T04:06:09.030Z,97.53
2022-09-18T04:08:54.300Z,97.85
2022-09-18T04:11:30.501Z,97.78
2022-09-18T04:13:59.463Z,97.75
2022-09-18T04:16:28.879Z,97.53
2022-09-18T04:18:58.910Z,97.56
2022-09-18T04:21:28.282Z,97.59
2022-09-18T04:23:59.058Z,97.56
2022-09-18T04:26:28.268Z,97.51
2022-09-18T04:28:59.293Z,97.49
2022-09-18T04:31:32.639Z,97.42
2022-09-18T04:34:04.126Z,97.48
2022-09-18T04:36:35.681Z,97.55
2022-09-18T04:39:09.846Z,97.61
2022-09-18T04:41:38.695Z,97.56
2022-09-18T04:44:07.623Z,97.43
2022-09-18T04:46:36.976Z,97.64
2022-09-18T04:49:05.989Z,97.43
2022-09-18T04:51:34.840Z,97.76
2022-09-18T04:54:06.366Z,97.76
2022-09-18T04:56:37.961Z,97.93
2022-09-18T04:59:07.366Z,97.59
2022-09-18T05:01:36.684Z,97.63
2022-09-18T05:04:12.442Z,97.42
2022-09-18T05:06:51.910Z,97.54
2022-09-18T05:09:21.220Z,97.75
2022-09-18T05:11:50.603Z,97.47
2022-09-18T05:14:19.927Z,97.50
2022-09-18T05:16:49.299Z,97.47
2022-09-18T05:19:41.133Z,97.57
2022-09-18T05:22:14.757Z,97.63
2022-09-18T05:24:49.566Z,97.44
2022-09-18T05:27:19.917Z,97.23
2022-09-18T05:29:50.379Z,97.52
2022-09-18T05:32:22.559Z,97.35
2022-09-18T05:34:52.539Z,97.19
2022-09-18T05:37:21.435Z,97.62
2022-09-18T05:39:53.957Z,97.67
2022-09-18T05:42:22.870Z,97.59
2022-09-18T05:44:51.704Z,97.67
2022-09-18T05:47:24.516Z,97.76
2022-09-18T05:49:53.472Z,97.87
2022-09-18T05:52:24.671Z,97.66
2022-09-18T05:54:54.680Z,97.24
2022-09-18T05:57:23.692Z,97.45
2022-09-18T05:59:52.506Z,97.56
2022-09-18T06:02:22.198Z,97.59
2022-09-18T06:05:06.311Z,97.87
2022-09-18T06:07:35.524Z,97.88
2022-09-18T06:10:04.977Z,98.03
2022-09-18T06:12:33.901Z,98.01
2022-09-18T06:15:04.470Z,97.66
2022-09-18T06:17:42.462Z,97.52
2022-09-18T06:20:11.802Z,97.39
2022-09-18T06:22:44.304Z,97.37
2022-09-18T06:25:13.567Z,97.54
2022-09-18T06:27:42.264Z,97.99
2022-09-18T06:30:13.708Z,97.76
2022-09-18T06:32:42.380Z,97.77
2022-09-18T06:35:11.422Z,97.74
2022-09-18T06:37:40.373Z,97.67
2022-09-18T06:40:20.508Z,97.82
2022-09-18T06:43:15.661Z,97.65
2022-09-18T06:46:05.243Z,97.85
2022-09-18T06:48:39.590Z,98.15
2022-09-18T06:51:09.589Z,97.26
2022-09-18T06:53:58.484Z,96.99
2022-09-18T06:56:27.242Z,96.68
2022-09-18T06:58:55.964Z,96.47
2022-09-18T07:01:24.874Z,96.59
2022-09-18T07:04:04.295Z,96.66
2022-09-18T07:06:38.535Z,96.85
2022-09-18T07:09:07.321Z,97.04
2022-09-18T07:12:06.405Z,97.13
2022-09-18T07:14:45.584Z,97.32
2022-09-18T07:17:18.730Z,97.30
2022-09-18T07:19:53.624Z,97.64
2022-09-18T07:22:26.192Z,96.74
2022-09-18T07:24:54.905Z,96.68
2022-09-18T07:27:23.914Z,96.09
2022-09-18T07:29:53.013Z,96.28
2022-09-18T07:32:21.855Z,96.03
2022-09-18T07:34:52.202Z,95.80
2022-09-18T07:37:26.213Z,95.82
2022-09-18T07:40:12.011Z,95.94
2022-09-18T07:43:01.071Z,94.88
2022-09-18T07:45:33.646Z,94.93
2022-09-18T07:48:04.875Z,95.35
2022-09-18T07:50:34.395Z,93.65
2022-09-18T07:53:04.899Z,93.62
2022-09-18T07:55:37.738Z,93.60
2022-09-18T07:58:07.634Z,92.52
2022-09-18T08:00:54.815Z,92.83
2022-09-18T08:03:28.553Z,93.28
2022-09-18T08:06:17.126Z,93.70
2022-09-18T08:08:57.627Z,93.80
2022-09-18T08:11:37.753Z,93.32
2022-09-18T08:14:39.097Z,93.41
2022-09-18T08:17:34.009Z,93.32
2022-09-18T08:20:21.591Z,93.14
2022-09-18T08:22:53.798Z,92.52
2022-09-18T08:25:27.619Z,92.09
2022-09-18T08:28:00.041Z,91.99
2022-09-18T08:30:36.720Z,91.23
2022-09-18T08:33:11.551Z,91.97
2022-09-18T08:35:44.118Z,92.14
2022-09-18T08:38:24.497Z,92.37
2022-09-18T08:41:29.155Z,92.46
2022-09-18T08:44:04.229Z,92.39
2022-09-18T08:46:38.651Z,93.02
2022-09-18T08:49:21.077Z,95.35
2022-09-18T08:51:58.747Z,98.56
2022-09-18T08:54:45.672Z,96.04
2022-09-18T08:57:41.820Z,92.78
2022-09-18T09:00:34.881Z,89.84
2022-09-18T09:03:26.611Z,90.76
2022-09-18T09:05:58.954Z,89.97
2022-09-18T09:08:58.587Z,87.88
2022-09-18T09:11:41.088Z,87.44
2022-09-18T09:14:39.952Z,88.08
2022-09-18T09:17:28.635Z,87.42
2022-09-18T09:20:05.732Z,87.42
2022-09-18T09:22:43.911Z,87.47
2022-09-18T09:25:22.456Z,87.54
2022-09-18T09:28:16.708Z,87.29
2022-09-18T09:31:18.104Z,86.90
2022-09-18T09:34:14.243Z,86.96
2022-09-18T09:37:00.924Z,87.35
2022-09-18T09:39:37.783Z,87.63
2022-09-18T09:42:12.921Z,87.98
2022-09-18T09:44:49.646Z,87.59
2022-09-18T09:47:30.592Z,88.10
2022-09-18T09:50:16.045Z,88.04
2022-09-18T09:52:47.306Z,88.37
2022-09-18T09:55:29.803Z,88.32
2022-09-18T09:58:11.124Z,88.82
2022-09-18T10:00:47.104Z,88.50
2022-09-18T10:03:35.156Z,88.73
2022-09-18T10:06:15.586Z,88.74
2022-09-18T10:08:50.641Z,89.00
2022-09-18T10:11:20.643Z,88.40
2022-09-18T10:14:02.010Z,88.57
2022-09-18T10:16:35.204Z,88.20
2022-09-18T10:19:04.947Z,87.90
2022-09-18T10:21:41.478Z,87.80
2022-09-18T10:24:19.518Z,87.64
2022-09-18T10:26:54.166Z,87.70
2022-09-18T10:29:23.441Z,87.75
2022-09-18T10:31:56.506Z,87.49
2022-09-18T10:34:38.592Z,87.82
2022-09-18T10:37:15.975Z,88.05
2022-09-18T10:39:53.916Z,87.72
2022-09-18T10:42:26.667Z,87.38
2022-09-18T10:45:04.645Z,87.59
2022-09-18T10:47:39.428Z,87.66
2022-09-18T10:50:19.309Z,88.05
2022-09-18T10:52:49.371Z,88.41
2022-09-18T10:55:31.068Z,87.89
2022-09-18T10:58:12.759Z,87.21
2022-09-18T11:00:53.042Z,85.92
2022-09-18T11:03:42.912Z,85.48
2022-09-18T11:06:25.319Z,85.79
2022-09-18T11:08:59.954Z,85.39
2022-09-18T11:11:33.018Z,85.07
2022-09-18T11:14:22.233Z,84.73
2022-09-18T11:17:04.061Z,85.13
2022-09-18T11:19:42.089Z,85.58
2022-09-18T11:22:37.309Z,85.49
2022-09-18T11:25:21.752Z,85.99
2022-09-18T11:27:57.965Z,85.58
2022-09-18T11:30:31.696Z,85.65
2022-09-18T11:33:25.028Z,85.75
2022-09-18T11:36:00.731Z,86.16
2022-09-18T11:38:32.365Z,85.94
2022-09-18T11:41:03.701Z,86.08
2022-09-18T11:43:41.074Z,86.20
2022-09-18T11:46:19.941Z,86.34
2022-09-18T11:49:03.747Z,86.91
2022-09-18T11:51:53.240Z,86.50
2022-09-18T11:54:28.694Z,86.50
2022-09-18T11:57:01.651Z,86.24
2022-09-18T11:59:44.729Z,86.21
2022-09-18T12:02:20.272Z,85.67
2022-09-18T12:04:54.967Z,85.24
2022-09-18T12:07:39.845Z,86.15
2022-09-18T12:10:17.330Z,85.64
2022-09-18T12:12:51.869Z,85.57
2022-09-18T12:15:23.916Z,84.95
2022-09-18T12:17:56.715Z,84.72
2022-09-18T12:20:32.292Z,84.93
2022-09-18T12:23:04.495Z,84.59
2022-09-18T12:25:41.534Z,84.44
2022-09-18T12:28:35.786Z,84.90
2022-09-18T12:31:19.303Z,84.56
2022-09-18T12:33:58.798Z,84.67
2022-09-18T12:36:52.162Z,85.02
2022-09-18T12:39:36.890Z,85.93
2022-09-18T12:42:24.528Z,86.22
2022-09-18T12:45:23.896Z,86.20
2022-09-18T12:48:12.734Z,86.79
2022-09-18T12:50:58.940Z,87.35
2022-09-18T12:53:49.054Z,87.87
2022-09-18T12:56:31.724Z,88.41
2022-09-18T12:59:19.193Z,88.52
2022-09-18T13:01:51.454Z,88.80
2022-09-18T13:04:26.171Z,89.34
2022-09-18T13:07:05.663Z,90.03
2022-09-18T13:09:42.715Z,90.11
2022-09-18T13:12:17.685Z,90.42
2022-09-18T13:14:50.629Z,90.41
2022-09-18T13:17:25.035Z,90.46
2022-09-18T13:19:59.499Z,90.64
2022-09-18T13:22:35.932Z,90.99
2022-09-18T13:25:20.197Z,90.86
2022-09-18T13:27:56.917Z,91.44
2022-09-18T13:30:31.244Z,91.50
2022-09-18T13:33:03.283Z,91.39
2022-09-18T13:35:34.900Z,91.65
2022-09-18T13:38:13.310Z,91.02
2022-09-18T13:40:43.918Z,91.33
2022-09-18T13:43:36.310Z,91.60
2022-09-18T13:46:07.075Z,92.04
2022-09-18T13:48:45.729Z,92.28
2022-09-18T13:51:23.369Z,92.39
2022-09-18T13:54:16.463Z,93.07
2022-09-18T13:57:20.131Z,92.98
2022-09-18T13:59:55.046Z,92.89
2022-09-18T14:02:30.460Z,92.70
2022-09-18T14:05:37.205Z,92.87
2022-09-18T14:08:35.664Z,92.84
2022-09-18T14:11:16.827Z,93.08
2022-09-18T14:13:54.721Z,93.11
2022-09-18T14:16:40.243Z,93.58
2022-09-18T14:19:30.493Z,93.96
2022-09-18T14:22:01.398Z,94.03
2022-09-18T14:24:55.358Z,94.35
2022-09-18T14:27:55.840Z,94.51
2022-09-18T14:30:27.212Z,94.18
2022-09-18T14:33:06.213Z,94.77
2022-09-18T14:35:44.076Z,94.74
2022-09-18T14:38:26.402Z,94.49
2022-09-18T14:41:03.072Z,94.56
2022-09-18T14:43:34.203Z,95.09
2022-09-18T14:46:07.005Z,95.37
2022-09-18T14:48:39.097Z,95.39
2022-09-18T14:51:19.042Z,95.58
2022-09-18T14:53:50.398Z,95.83
2022-09-18T14:56:27.226Z,95.94
2022-09-18T14:58:59.413Z,95.91
2022-09-18T15:01:30.691Z,96.30
2022-09-18T15:04:02.098Z,96.15
2022-09-18T15:06:35.445Z,96.34
2022-09-18T15:09:10.256Z,95.96
2022-09-18T15:12:01.219Z,96.11
2022-09-18T15:14:38.928Z,95.94
2022-09-18T15:17:19.299Z,95.87
2022-09-18T15:20:04.006Z,96.02
2022-09-18T15:22:34.611Z,96.00
2022-09-18T15:25:04.923Z,95.95
2022-09-18T15:27:35.545Z,95.94
2022-09-18T15:30:10.539Z,96.09
2022-09-18T15:32:45.538Z,96.10
2022-09-18T15:35:21.367Z,96.21
2022-09-18T15:37:57.952Z,96.15
2022-09-18T15:40:32.339Z,96.37
2022-09-18T15:43:03.760Z,96.23
2022-09-18T15:45:35.726Z,96.53
2022-09-18T15:48:43.776Z,96.22
2022-09-18T15:51:16.286Z,96.36
2022-09-18T15:54:11.138Z,96.16
2022-09-18T15:56:50.001Z,96.06
2022-09-18T15:59:30.721Z,96.31
2022-09-18T16:02:04.278Z,96.16
2022-09-18T16:04:36.812Z,96.06
2022-09-18T16:07:24.949Z,95.80
2022-09-18T16:09:55.076Z,95.98
2022-09-18T16:12:36.234Z,96.10
2022-09-18T16:15:25.339Z,96.04
2022-09-18T16:18:03.544Z,96.18
2022-09-18T16:20:47.018Z,96.05
2022-09-18T16:23:20.649Z,96.03
2022-09-18T16:26:10.463Z,95.98
2022-09-18T16:28:47.267Z,96.20
2022-09-18T16:31:18.528Z,95.99
2022-09-18T16:33:56.449Z,95.87
2022-09-18T16:36:29.292Z,96.08
2022-09-18T16:39:00.922Z,96.02
2022-09-18T16:41:34.503Z,95.74
2022-09-18T16:44:07.384Z,95.98
2022-09-18T16:46:43.058Z,95.98
2022-09-18T16:49:16.322Z,96.04
2022-09-18T16:51:46.019Z,96.24
2022-09-18T16:54:17.310Z,96.07
2022-09-18T16:56:51.044Z,96.13
2022-09-18T16:59:23.937Z,96.09
2022-09-18T17:02:03.799Z,96.01
2022-09-18T17:04:33.043Z,95.79
2022-09-18T17:07:03.160Z,95.99
2022-09-18T17:09:32.162Z,96.05
2022-09-18T17:12:01.483Z,95.77
2022-09-18T17:14:34.275Z,95.94
2022-09-18T17:17:06.620Z,95.94
2022-09-18T17:19:36.352Z,95.86
2022-09-18T17:22:05.374Z,96.00
2022-09-18T17:24:34.325Z,96.25
2022-09-18T17:27:06.771Z,96.23
2022-09-18T17:29:40.793Z,96.15
2022-09-18T17:32:12.041Z,96.19
2022-09-18T17:34:41.446Z,96.20
2022-09-18T17:37:13.361Z,96.29
2022-09-18T17:39:42.306Z,96.18
2022-09-18T17:42:13.789Z,96.18
2022-09-18T17:44:43.207Z,96.60
2022-09-18T17:47:13.078Z,96.38
2022-09-18T17:49:45.552Z,96.52
2022-09-18T17:52:18.779Z,96.69
2022-09-18T17:54:47.590Z,96.75
2022-09-18T17:57:16.879Z,96.64
2022-09-18T17:59:49.983Z,96.50
2022-09-18T18:02:19.807Z,96.61
2022-09-18T18:04:50.876Z,96.62
2022-09-18T18:07:20.224Z,96.55
2022-09-18T18:09:54.998Z,96.85
2022-09-18T18:12:27.820Z,96.77
2022-09-18T18:14:59.466Z,96.87
2022-09-18T18:17:36.339Z,96.76
2022-09-18T18:20:10.317Z,96.81
2022-09-18T18:22:39.861Z,96.77
2022-09-18T18:25:12.178Z,97.15
2022-09-18T18:27:41.109Z,96.89
2022-09-18T18:30:15.919Z,96.86
2022-09-18T18:32:45.577Z,97.05
2022-09-18T18:35:14.509Z,96.77
2022-09-18T18:37:44.525Z,97.08
2022-09-18T18:40:17.454Z,96.96
2022-09-18T18:42:46.951Z,97.01
2022-09-18T18:45:16.112Z,96.99
2022-09-18T18:47:48.205Z,96.95
2022-09-18T18:50:17.671Z,97.00
2022-09-18T18:52:46.941Z,97.04
2022-09-18T18:55:16.100Z,97.18
2022-09-18T18:57:45.349Z,97.12
2022-09-18T19:00:15.017Z,97.24
2022-09-18T19:02:48.248Z,97.05
2022-09-18T19:05:28.002Z,97.03
2022-09-18T19:07:59.253Z,97.12
2022-09-18T19:10:29.275Z,97.10
2022-09-18T19:12:59.318Z,97.19
2022-09-18T19:15:28.807Z,96.90
2022-09-18T19:17:58.662Z,96.93
2022-09-18T19:20:27.855Z,97.03
2022-09-18T19:22:56.929Z,97.04
2022-09-18T19:25:27.548Z,96.79
2022-09-18T19:27:56.905Z,96.56
2022-09-18T19:30:26.758Z,96.72
2022-09-18T19:32:56.045Z,96.86
2022-09-18T19:35:25.163Z,96.83
2022-09-18T19:37:57.101Z,96.97
2022-09-18T19:40:27.831Z,96.84
2022-09-18T19:43:01.554Z,96.78
2022-09-18T19:45:36.026Z,96.82
2022-09-18T19:48:09.858Z,96.76
2022-09-18T19:50:39.548Z,97.02
2022-09-18T19:53:08.847Z,96.75
2022-09-18T19:55:38.022Z,96.88
2022-09-18T19:58:06.888Z,96.59
2022-09-18T20:00:39.215Z,96.72
2022-09-18T20:03:08.961Z,96.67
2022-09-18T20:05:38.326Z,96.57
2022-09-18T20:08:08.440Z,96.68
2022-09-18T20:10:42.691Z,96.52
2022-09-18T20:13:12.556Z,96.65
2022-09-18T20:15:41.288Z,96.43
2022-09-18T20:18:10.018Z,96.58
2022-09-18T20:20:38.917Z,96.69
2022-09-18T20:23:07.666Z,96.49
2022-09-18T20:25:36.513Z,96.63
2022-09-18T20:28:08.017Z,96.36
2022-09-18T20:30:37.972Z,96.44
2022-09-18T20:33:09.691Z,96.53
2022-09-18T20:35:38.398Z,96.42
2022-09-18T20:38:07.255Z,96.73
2022-09-18T20:40:39.062Z,96.62
2022-09-18T20:43:08.242Z,96.55
2022-09-18T20:45:36.849Z,96.52
2022-09-18T20:48:05.930Z,96.65
2022-09-18T20:50:34.904Z,96.47
2022-09-18T20:53:08.228Z,96.33
2022-09-18T20:55:36.913Z,96.61
2022-09-18T20:58:05.674Z,96.76
2022-09-18T21:00:37.101Z,96.59
2022-09-18T21:03:06.640Z,96.62
2022-09-18T21:05:35.819Z,96.61
2022-09-18T21:08:04.527Z,96.65
2022-09-18T21:10:33.398Z,96.51
2022-09-18T21:13:02.590Z,96.41
2022-09-18T21:15:31.413Z,96.58
2022-09-18T21:18:00.500Z,96.49
2022-09-18T21:20:29.541Z,96.57
2022-09-18T21:23:16.437Z,96.54
2022-09-18T21:25:48.224Z,96.39
2022-09-18T21:28:16.817Z,96.42
2022-09-18T21:30:45.474Z,96.38
2022-09-18T21:33:15.447Z,96.54
2022-09-18T21:35:52.522Z,96.53
2022-09-18T21:38:21.355Z,96.91
2022-09-18T21:40:50.065Z,96.71
2022-09-18T21:43:18.809Z,96.81
2022-09-18T21:45:49.381Z,96.73
2022-09-18T21:48:19.585Z,96.82
2022-09-18T21:50:51.302Z,96.72
2022-09-18T21:53:20.053Z,96.66
2022-09-18T21:55:48.722Z,96.78
2022-09-18T21:58:18.601Z,96.97
2022-09-18T22:00:47.445Z,97.07
2022-09-18T22:03:17.500Z,96.76
2022-09-18T22:05:46.401Z,96.72
2022-09-18T22:08:15.892Z,96.99
2022-09-18T22:10:46.687Z,97.06
2022-09-18T22:13:15.348Z,96.78
2022-09-18T22:15:44.027Z,96.85
2022-09-18T22:18:13.120Z,96.95
2022-09-18T22:20:41.803Z,97.06
2022-09-18T22:23:10.409Z,97.16
2022-09-18T22:25:39.692Z,96.87
2022-09-18T22:28:08.962Z,96.92
2022-09-18T22:30:37.913Z,97.09
2022-09-18T22:33:06.645Z,96.95
2022-09-18T22:35:35.614Z,97.10
2022-09-18T22:38:04.285Z,96.99
2022-09-18T22:40:34.010Z,97.20
2022-09-18T22:43:02.853Z,97.28
2022-09-18T22:45:31.551Z,97.40
2022-09-18T22:48:00.238Z,97.20
2022-09-18T22:50:29.024Z,97.09
2022-09-18T22:52:58.358Z,97.18
2022-09-18T22:55:27.068Z,97.34
2022-09-18T22:57:57.475Z,97.43
2022-09-18T23:00:25.490Z,97.58
2022-09-18T23:02:55.039Z,97.77
2022-09-18T23:05:23.746Z,97.81
2022-09-18T23:07:52.499Z,97.91
2022-09-18T23:10:22.289Z,97.81
2022-09-18T23:12:51.302Z,97.99
2022-09-18T23:15:19.981Z,98.11
2022-09-18T23:17:50.100Z,98.31
2022-09-18T23:20:19.999Z,98.31
2022-09-18T23:22:48.931Z,98.26
2022-09-18T23:25:17.757Z,98.46
2022-09-18T23:27:46.942Z,98.66
2022-09-18T23:30:15.920Z,98.66
2022-09-18T23:32:48.248Z,98.51
2022-09-18T23:35:17.067Z,98.43
2022-09-18T23:37:45.832Z,98.49
2022-09-18T23:40:15.557Z,99.00
2022-09-18T23:42:47.075Z,98.90
2022-09-18T23:45:16.120Z,98.86
2022-09-18T23:47:44.883Z,98.92
2022-09-18T23:50:13.630Z,98.99
2022-09-18T23:52:44.024Z,98.60
2022-09-18T23:55:12.714Z,99.02
2022-09-18T23:57:41.422Z,99.34
